sensor_id;sensor_type;location;lat;lon;timestamp;temperature;humidity
67379;DHT22;54262;44.642;-0.974;2023-06-10T00:02:07;22.60;99.90
67379;DHT22;54262;44.642;-0.974;2023-06-10T00:04:33;22.60;99.90
67379;DHT22;54262;44.642;-0.974;2023-06-10T00:06:59;22.60;99.90
67379;DHT22;54262;44.642;-0.974;2023-06-10T00:09:25;22.60;99.90
67379;DHT22;54262;44.642;-0.974;2023-06-10T00:11:51;22.60;99.90
67379;DHT22;54262;44.642;-0.974;2023-06-10T00:14:16;22.60;99.90
67379;DHT22;54262;44.642;-0.974;2023-06-10T00:16:42;22.60;99.90
67379;DHT22;54262;44.642;-0.974;2023-06-10T00:19:10;22.60;99.90
67379;DHT22;54262;44.642;-0.974;2023-06-10T00:21:41;22.60;99.90
67379;DHT22;54262;44.642;-0.974;2023-06-10T00:24:10;22.50;99.90
67379;DHT22;54262;44.642;-0.974;2023-06-10T00:26:38;22.50;99.90
67379;DHT22;54262;44.642;-0.974;2023-06-10T00:29:04;22.50;99.90
67379;DHT22;54262;44.642;-0.974;2023-06-10T00:31:30;22.50;99.90
67379;DHT22;54262;44.642;-0.974;2023-06-10T00:33:56;22.50;99.90
67379;DHT22;54262;44.642;-0.974;2023-06-10T00:36:22;22.50;99.90
67379;DHT22;54262;44.642;-0.974;2023-06-10T00:38:47;22.50;99.90
67379;DHT22;54262;44.642;-0.974;2023-06-10T00:41:13;22.50;99.90
67379;DHT22;54262;44.642;-0.974;2023-06-10T00:43:39;22.40;99.90
67379;DHT22;54262;44.642;-0.974;2023-06-10T00:46:05;22.40;99.90
67379;DHT22;54262;44.642;-0.974;2023-06-10T00:48:31;22.40;99.90
67379;DHT22;54262;44.642;-0.974;2023-06-10T00:50:58;22.40;99.90
67379;DHT22;54262;44.642;-0.974;2023-06-10T00:53:25;22.40;99.90
67379;DHT22;54262;44.642;-0.974;2023-06-10T00:55:51;22.40;99.90
67379;DHT22;54262;44.642;-0.974;2023-06-10T00:58:17;22.30;99.90
67379;DHT22;54262;44.642;-0.974;2023-06-10T01:00:43;22.30;99.90
67379;DHT22;54262;44.642;-0.974;2023-06-10T01:03:10;22.30;99.90
67379;DHT22;54262;44.642;-0.974;2023-06-10T01:05:38;22.30;99.90
67379;DHT22;54262;44.642;-0.974;2023-06-10T01:08:36;22.20;99.90
67379;DHT22;54262;44.642;-0.974;2023-06-10T01:11:08;22.20;99.90
67379;DHT22;54262;44.642;-0.974;2023-06-10T01:13:40;22.10;99.90
67379;DHT22;54262;44.642;-0.974;2023-06-10T01:16:07;22.10;99.90
67379;DHT22;54262;44.642;-0.974;2023-06-10T01:18:33;22.10;99.90
67379;DHT22;54262;44.642;-0.974;2023-06-10T01:20:59;22.10;99.90
67379;DHT22;54262;44.642;-0.974;2023-06-10T01:23:27;22.10;99.90
67379;DHT22;54262;44.642;-0.974;2023-06-10T01:26:04;22.00;99.90
67379;DHT22;54262;44.642;-0.974;2023-06-10T01:28:36;22.00;99.90
67379;DHT22;54262;44.642;-0.974;2023-06-10T01:34:04;22.00;99.90
67379;DHT22;54262;44.642;-0.974;2023-06-10T01:36:33;22.00;99.90
67379;DHT22;54262;44.642;-0.974;2023-06-10T01:39:00;22.00;99.90
67379;DHT22;54262;44.642;-0.974;2023-06-10T01:41:27;21.90;99.90
67379;DHT22;54262;44.642;-0.974;2023-06-10T01:43:54;21.90;99.90
67379;DHT22;54262;44.642;-0.974;2023-06-10T01:46:20;21.90;99.90
67379;DHT22;54262;44.642;-0.974;2023-06-10T01:48:46;21.90;99.90
67379;DHT22;54262;44.642;-0.974;2023-06-10T01:51:12;21.90;99.90
67379;DHT22;54262;44.642;-0.974;2023-06-10T01:53:38;21.90;99.90
67379;DHT22;54262;44.642;-0.974;2023-06-10T01:56:04;21.80;99.90
67379;DHT22;54262;44.642;-0.974;2023-06-10T01:58:29;21.80;99.90
67379;DHT22;54262;44.642;-0.974;2023-06-10T02:00:55;21.80;99.90
67379;DHT22;54262;44.642;-0.974;2023-06-10T02:03:21;21.80;99.90
67379;DHT22;54262;44.642;-0.974;2023-06-10T02:05:47;21.70;99.90
67379;DHT22;54262;44.642;-0.974;2023-06-10T02:08:12;21.70;99.90
67379;DHT22;54262;44.642;-0.974;2023-06-10T02:10:38;21.70;99.90
67379;DHT22;54262;44.642;-0.974;2023-06-10T02:13:04;21.70;99.90
67379;DHT22;54262;44.642;-0.974;2023-06-10T02:15:30;21.60;99.90
67379;DHT22;54262;44.642;-0.974;2023-06-10T02:17:56;21.70;99.90
67379;DHT22;54262;44.642;-0.974;2023-06-10T02:20:22;21.60;99.90
67379;DHT22;54262;44.642;-0.974;2023-06-10T02:22:47;21.60;99.90
67379;DHT22;54262;44.642;-0.974;2023-06-10T02:25:15;21.60;99.90
67379;DHT22;54262;44.642;-0.974;2023-06-10T02:27:43;21.60;99.90
67379;DHT22;54262;44.642;-0.974;2023-06-10T02:30:12;21.60;99.90
67379;DHT22;54262;44.642;-0.974;2023-06-10T02:32:38;21.50;99.90
67379;DHT22;54262;44.642;-0.974;2023-06-10T02:35:04;21.50;99.90
67379;DHT22;54262;44.642;-0.974;2023-06-10T02:37:30;21.50;99.90
67379;DHT22;54262;44.642;-0.974;2023-06-10T02:39:56;21.50;99.90
67379;DHT22;54262;44.642;-0.974;2023-06-10T02:42:22;21.50;99.90
67379;DHT22;54262;44.642;-0.974;2023-06-10T02:44:47;21.50;99.90
67379;DHT22;54262;44.642;-0.974;2023-06-10T02:47:13;21.50;99.90
67379;DHT22;54262;44.642;-0.974;2023-06-10T02:49:38;21.50;99.90
67379;DHT22;54262;44.642;-0.974;2023-06-10T02:52:05;21.40;99.90
67379;DHT22;54262;44.642;-0.974;2023-06-10T02:54:32;21.40;99.90
67379;DHT22;54262;44.642;-0.974;2023-06-10T02:56:58;21.40;99.90
67379;DHT22;54262;44.642;-0.974;2023-06-10T02:59:23;21.40;99.90
67379;DHT22;54262;44.642;-0.974;2023-06-10T03:01:49;21.40;99.90
67379;DHT22;54262;44.642;-0.974;2023-06-10T03:04:15;21.40;99.90
67379;DHT22;54262;44.642;-0.974;2023-06-10T03:06:41;21.40;99.90
67379;DHT22;54262;44.642;-0.974;2023-06-10T03:09:06;21.40;99.90
67379;DHT22;54262;44.642;-0.974;2023-06-10T03:11:35;21.40;99.90
67379;DHT22;54262;44.642;-0.974;2023-06-10T03:14:01;21.40;99.90
67379;DHT22;54262;44.642;-0.974;2023-06-10T03:16:27;21.40;99.90
67379;DHT22;54262;44.642;-0.974;2023-06-10T03:18:53;21.40;99.90
67379;DHT22;54262;44.642;-0.974;2023-06-10T03:21:19;21.30;99.90
67379;DHT22;54262;44.642;-0.974;2023-06-10T03:23:45;21.30;99.90
67379;DHT22;54262;44.642;-0.974;2023-06-10T03:26:13;21.30;99.90
67379;DHT22;54262;44.642;-0.974;2023-06-10T03:28:40;21.30;99.90
67379;DHT22;54262;44.642;-0.974;2023-06-10T03:31:06;21.30;99.90
67379;DHT22;54262;44.642;-0.974;2023-06-10T03:33:32;21.30;99.90
67379;DHT22;54262;44.642;-0.974;2023-06-10T03:35:58;21.20;99.90
67379;DHT22;54262;44.642;-0.974;2023-06-10T03:38:24;21.30;99.90
67379;DHT22;54262;44.642;-0.974;2023-06-10T03:40:50;21.20;99.90
67379;DHT22;54262;44.642;-0.974;2023-06-10T03:43:15;21.20;99.90
67379;DHT22;54262;44.642;-0.974;2023-06-10T03:45:41;21.20;99.90
67379;DHT22;54262;44.642;-0.974;2023-06-10T03:48:10;21.20;99.90
67379;DHT22;54262;44.642;-0.974;2023-06-10T03:50:36;21.20;99.90
67379;DHT22;54262;44.642;-0.974;2023-06-10T03:53:02;21.10;99.90
67379;DHT22;54262;44.642;-0.974;2023-06-10T03:55:28;21.10;99.90
67379;DHT22;54262;44.642;-0.974;2023-06-10T03:57:53;21.10;99.90
67379;DHT22;54262;44.642;-0.974;2023-06-10T04:00:19;21.00;99.90
67379;DHT22;54262;44.642;-0.974;2023-06-10T04:02:47;21.00;99.90
67379;DHT22;54262;44.642;-0.974;2023-06-10T04:05:16;21.00;99.90
67379;DHT22;54262;44.642;-0.974;2023-06-10T04:07:42;21.00;99.90
67379;DHT22;54262;44.642;-0.974;2023-06-10T04:10:10;21.00;99.90
67379;DHT22;54262;44.642;-0.974;2023-06-10T04:12:36;20.90;99.90
67379;DHT22;54262;44.642;-0.974;2023-06-10T04:15:03;20.90;99.90
67379;DHT22;54262;44.642;-0.974;2023-06-10T04:17:29;20.90;99.90
67379;DHT22;54262;44.642;-0.974;2023-06-10T04:19:55;20.90;99.90
67379;DHT22;54262;44.642;-0.974;2023-06-10T04:22:21;20.90;99.90
67379;DHT22;54262;44.642;-0.974;2023-06-10T04:24:48;20.80;99.90
67379;DHT22;54262;44.642;-0.974;2023-06-10T04:27:16;20.80;99.90
67379;DHT22;54262;44.642;-0.974;2023-06-10T04:29:44;20.80;99.90
67379;DHT22;54262;44.642;-0.974;2023-06-10T04:32:09;20.80;99.90
67379;DHT22;54262;44.642;-0.974;2023-06-10T04:34:36;20.70;99.90
67379;DHT22;54262;44.642;-0.974;2023-06-10T04:37:01;20.80;99.90
67379;DHT22;54262;44.642;-0.974;2023-06-10T04:39:28;20.70;99.90
67379;DHT22;54262;44.642;-0.974;2023-06-10T04:41:53;20.70;99.90
67379;DHT22;54262;44.642;-0.974;2023-06-10T04:44:19;20.70;99.90
67379;DHT22;54262;44.642;-0.974;2023-06-10T04:46:45;20.60;99.90
67379;DHT22;54262;44.642;-0.974;2023-06-10T04:49:11;20.70;99.90
67379;DHT22;54262;44.642;-0.974;2023-06-10T04:51:38;20.60;99.90
67379;DHT22;54262;44.642;-0.974;2023-06-10T04:54:04;20.60;99.90
67379;DHT22;54262;44.642;-0.974;2023-06-10T04:56:30;20.60;99.90
67379;DHT22;54262;44.642;-0.974;2023-06-10T04:58:57;20.60;99.90
67379;DHT22;54262;44.642;-0.974;2023-06-10T05:01:22;20.60;99.90
67379;DHT22;54262;44.642;-0.974;2023-06-10T05:03:48;20.60;99.90
67379;DHT22;54262;44.642;-0.974;2023-06-10T05:06:14;20.50;99.90
67379;DHT22;54262;44.642;-0.974;2023-06-10T05:08:40;20.50;99.90
67379;DHT22;54262;44.642;-0.974;2023-06-10T05:11:05;20.50;99.90
67379;DHT22;54262;44.642;-0.974;2023-06-10T05:13:31;20.50;99.90
67379;DHT22;54262;44.642;-0.974;2023-06-10T05:15:58;20.50;99.90
67379;DHT22;54262;44.642;-0.974;2023-06-10T05:18:23;20.50;99.90
67379;DHT22;54262;44.642;-0.974;2023-06-10T05:20:49;20.50;99.90
67379;DHT22;54262;44.642;-0.974;2023-06-10T05:23:15;20.40;99.90
67379;DHT22;54262;44.642;-0.974;2023-06-10T05:25:40;20.40;99.90
67379;DHT22;54262;44.642;-0.974;2023-06-10T05:28:09;20.40;99.90
67379;DHT22;54262;44.642;-0.974;2023-06-10T05:30:37;20.40;99.90
67379;DHT22;54262;44.642;-0.974;2023-06-10T05:33:04;20.40;99.90
67379;DHT22;54262;44.642;-0.974;2023-06-10T05:35:30;20.40;99.90
67379;DHT22;54262;44.642;-0.974;2023-06-10T05:37:56;20.40;99.90
67379;DHT22;54262;44.642;-0.974;2023-06-10T05:40:22;20.40;99.90
67379;DHT22;54262;44.642;-0.974;2023-06-10T05:42:49;20.40;99.90
67379;DHT22;54262;44.642;-0.974;2023-06-10T05:45:14;20.40;99.90
67379;DHT22;54262;44.642;-0.974;2023-06-10T05:47:40;20.40;99.90
67379;DHT22;54262;44.642;-0.974;2023-06-10T05:50:06;20.40;99.90
67379;DHT22;54262;44.642;-0.974;2023-06-10T05:52:37;20.40;99.90
67379;DHT22;54262;44.642;-0.974;2023-06-10T05:55:06;20.40;99.90
67379;DHT22;54262;44.642;-0.974;2023-06-10T05:57:31;20.40;99.90
67379;DHT22;54262;44.642;-0.974;2023-06-10T05:59:57;20.40;99.90
67379;DHT22;54262;44.642;-0.974;2023-06-10T06:02:23;20.40;99.90
67379;DHT22;54262;44.642;-0.974;2023-06-10T06:04:48;20.40;99.90
67379;DHT22;54262;44.642;-0.974;2023-06-10T06:07:14;20.40;99.90
67379;DHT22;54262;44.642;-0.974;2023-06-10T06:09:40;20.50;99.90
67379;DHT22;54262;44.642;-0.974;2023-06-10T06:12:06;20.60;99.90
67379;DHT22;54262;44.642;-0.974;2023-06-10T06:14:36;20.60;99.90
67379;DHT22;54262;44.642;-0.974;2023-06-10T06:17:02;20.60;99.90
67379;DHT22;54262;44.642;-0.974;2023-06-10T06:19:27;20.70;99.90
67379;DHT22;54262;44.642;-0.974;2023-06-10T06:21:53;20.80;99.90
67379;DHT22;54262;44.642;-0.974;2023-06-10T06:24:19;20.80;99.90
67379;DHT22;54262;44.642;-0.974;2023-06-10T06:26:44;20.90;99.90
67379;DHT22;54262;44.642;-0.974;2023-06-10T06:29:13;20.90;99.90
67379;DHT22;54262;44.642;-0.974;2023-06-10T06:31:40;21.00;99.90
67379;DHT22;54262;44.642;-0.974;2023-06-10T06:34:06;21.00;99.90
67379;DHT22;54262;44.642;-0.974;2023-06-10T06:36:32;21.10;99.90
67379;DHT22;54262;44.642;-0.974;2023-06-10T06:38:57;21.10;99.90
67379;DHT22;54262;44.642;-0.974;2023-06-10T06:41:26;21.20;99.90
67379;DHT22;54262;44.642;-0.974;2023-06-10T06:43:51;21.20;99.90
67379;DHT22;54262;44.642;-0.974;2023-06-10T06:46:17;21.20;99.90
67379;DHT22;54262;44.642;-0.974;2023-06-10T06:48:43;21.30;99.90
67379;DHT22;54262;44.642;-0.974;2023-06-10T06:51:08;21.30;99.90
67379;DHT22;54262;44.642;-0.974;2023-06-10T06:53:34;21.30;99.90
67379;DHT22;54262;44.642;-0.974;2023-06-10T06:56:01;21.30;99.90
67379;DHT22;54262;44.642;-0.974;2023-06-10T06:58:27;21.40;99.90
67379;DHT22;54262;44.642;-0.974;2023-06-10T07:00:53;21.40;99.90
67379;DHT22;54262;44.642;-0.974;2023-06-10T07:03:18;21.40;99.90
67379;DHT22;54262;44.642;-0.974;2023-06-10T07:05:44;21.40;99.90
67379;DHT22;54262;44.642;-0.974;2023-06-10T07:08:10;21.40;99.90
67379;DHT22;54262;44.642;-0.974;2023-06-10T07:10:37;21.50;99.90
67379;DHT22;54262;44.642;-0.974;2023-06-10T07:13:03;21.50;99.90
67379;DHT22;54262;44.642;-0.974;2023-06-10T07:15:28;21.50;99.90
67379;DHT22;54262;44.642;-0.974;2023-06-10T07:17:54;21.60;99.90
67379;DHT22;54262;44.642;-0.974;2023-06-10T07:20:20;21.60;99.90
67379;DHT22;54262;44.642;-0.974;2023-06-10T07:22:46;21.60;99.90
67379;DHT22;54262;44.642;-0.974;2023-06-10T07:25:12;21.60;99.90
67379;DHT22;54262;44.642;-0.974;2023-06-10T07:27:37;21.60;99.90
67379;DHT22;54262;44.642;-0.974;2023-06-10T07:30:09;21.70;99.90
67379;DHT22;54262;44.642;-0.974;2023-06-10T07:32:37;21.70;99.90
67379;DHT22;54262;44.642;-0.974;2023-06-10T07:35:05;21.70;99.90
67379;DHT22;54262;44.642;-0.974;2023-06-10T07:37:31;21.80;99.90
67379;DHT22;54262;44.642;-0.974;2023-06-10T07:39:57;21.70;99.90
67379;DHT22;54262;44.642;-0.974;2023-06-10T07:42:22;21.80;99.90
67379;DHT22;54262;44.642;-0.974;2023-06-10T07:44:48;21.80;99.90
67379;DHT22;54262;44.642;-0.974;2023-06-10T07:47:14;21.80;99.90
67379;DHT22;54262;44.642;-0.974;2023-06-10T07:49:39;21.90;99.90
67379;DHT22;54262;44.642;-0.974;2023-06-10T07:52:06;21.90;99.90
67379;DHT22;54262;44.642;-0.974;2023-06-10T07:54:32;22.00;99.90
67379;DHT22;54262;44.642;-0.974;2023-06-10T07:56:58;22.00;99.90
67379;DHT22;54262;44.642;-0.974;2023-06-10T07:59:23;22.00;99.90
67379;DHT22;54262;44.642;-0.974;2023-06-10T08:01:51;22.10;99.90
67379;DHT22;54262;44.642;-0.974;2023-06-10T08:04:16;22.20;99.90
67379;DHT22;54262;44.642;-0.974;2023-06-10T08:06:42;22.20;99.90
67379;DHT22;54262;44.642;-0.974;2023-06-10T08:09:07;22.20;99.90
67379;DHT22;54262;44.642;-0.974;2023-06-10T08:11:33;22.30;99.90
67379;DHT22;54262;44.642;-0.974;2023-06-10T08:13:59;22.40;99.90
67379;DHT22;54262;44.642;-0.974;2023-06-10T08:16:25;22.40;99.90
67379;DHT22;54262;44.642;-0.974;2023-06-10T08:18:50;22.40;99.90
67379;DHT22;54262;44.642;-0.974;2023-06-10T08:21:16;22.50;99.90
67379;DHT22;54262;44.642;-0.974;2023-06-10T08:23:41;22.50;99.90
67379;DHT22;54262;44.642;-0.974;2023-06-10T08:26:07;22.50;99.90
67379;DHT22;54262;44.642;-0.974;2023-06-10T08:28:33;22.60;99.90
67379;DHT22;54262;44.642;-0.974;2023-06-10T08:31:01;22.60;99.90
67379;DHT22;54262;44.642;-0.974;2023-06-10T08:33:28;22.60;99.90
67379;DHT22;54262;44.642;-0.974;2023-06-10T08:35:54;22.70;99.90
67379;DHT22;54262;44.642;-0.974;2023-06-10T08:38:20;22.70;99.90
67379;DHT22;54262;44.642;-0.974;2023-06-10T08:40:45;22.80;99.90
67379;DHT22;54262;44.642;-0.974;2023-06-10T08:46:01;22.80;99.90
67379;DHT22;54262;44.642;-0.974;2023-06-10T08:48:30;22.80;99.90
67379;DHT22;54262;44.642;-0.974;2023-06-10T08:50:57;22.90;99.90
67379;DHT22;54262;44.642;-0.974;2023-06-10T08:53:24;22.90;99.90
67379;DHT22;54262;44.642;-0.974;2023-06-10T08:55:51;22.90;99.90
67379;DHT22;54262;44.642;-0.974;2023-06-10T08:58:18;23.00;99.90
67379;DHT22;54262;44.642;-0.974;2023-06-10T09:00:45;23.00;99.90
67379;DHT22;54262;44.642;-0.974;2023-06-10T09:03:11;23.00;99.90
67379;DHT22;54262;44.642;-0.974;2023-06-10T09:05:38;23.10;99.90
67379;DHT22;54262;44.642;-0.974;2023-06-10T09:08:05;23.10;99.90
67379;DHT22;54262;44.642;-0.974;2023-06-10T09:10:32;23.10;99.90
67379;DHT22;54262;44.642;-0.974;2023-06-10T09:12:58;23.10;99.90
67379;DHT22;54262;44.642;-0.974;2023-06-10T09:15:23;23.20;99.90
67379;DHT22;54262;44.642;-0.974;2023-06-10T09:17:49;23.20;99.90
67379;DHT22;54262;44.642;-0.974;2023-06-10T09:20:16;23.30;99.90
67379;DHT22;54262;44.642;-0.974;2023-06-10T09:22:42;23.30;99.90
67379;DHT22;54262;44.642;-0.974;2023-06-10T09:25:12;23.40;99.90
67379;DHT22;54262;44.642;-0.974;2023-06-10T09:30:34;23.50;99.90
67379;DHT22;54262;44.642;-0.974;2023-06-10T09:33:03;23.50;99.90
67379;DHT22;54262;44.642;-0.974;2023-06-10T09:35:37;23.50;99.90
67379;DHT22;54262;44.642;-0.974;2023-06-10T09:38:09;23.60;99.90
67379;DHT22;54262;44.642;-0.974;2023-06-10T09:40:51;23.70;99.90
67379;DHT22;54262;44.642;-0.974;2023-06-10T09:43:17;23.70;99.90
67379;DHT22;54262;44.642;-0.974;2023-06-10T09:45:43;23.70;99.90
67379;DHT22;54262;44.642;-0.974;2023-06-10T09:48:09;23.80;99.90
67379;DHT22;54262;44.642;-0.974;2023-06-10T09:50:36;23.80;99.90
67379;DHT22;54262;44.642;-0.974;2023-06-10T09:53:06;23.80;99.90
67379;DHT22;54262;44.642;-0.974;2023-06-10T09:55:33;23.90;99.90
67379;DHT22;54262;44.642;-0.974;2023-06-10T09:57:59;24.00;99.90
67379;DHT22;54262;44.642;-0.974;2023-06-10T10:00:25;24.00;99.90
67379;DHT22;54262;44.642;-0.974;2023-06-10T10:02:52;24.00;99.90
67379;DHT22;54262;44.642;-0.974;2023-06-10T10:05:20;24.10;99.90
67379;DHT22;54262;44.642;-0.974;2023-06-10T10:07:47;24.10;99.90
67379;DHT22;54262;44.642;-0.974;2023-06-10T10:10:14;24.20;99.90
67379;DHT22;54262;44.642;-0.974;2023-06-10T10:12:41;24.20;99.90
67379;DHT22;54262;44.642;-0.974;2023-06-10T10:15:08;24.20;99.90
67379;DHT22;54262;44.642;-0.974;2023-06-10T10:17:39;24.30;99.90
67379;DHT22;54262;44.642;-0.974;2023-06-10T10:20:06;24.30;99.90
67379;DHT22;54262;44.642;-0.974;2023-06-10T10:22:37;24.40;99.90
67379;DHT22;54262;44.642;-0.974;2023-06-10T10:25:10;24.50;99.90
67379;DHT22;54262;44.642;-0.974;2023-06-10T10:27:41;24.50;99.90
67379;DHT22;54262;44.642;-0.974;2023-06-10T10:30:11;24.50;99.90
67379;DHT22;54262;44.642;-0.974;2023-06-10T10:32:43;24.60;99.90
67379;DHT22;54262;44.642;-0.974;2023-06-10T10:35:21;24.60;99.90
67379;DHT22;54262;44.642;-0.974;2023-06-10T10:37:52;24.70;99.90
67379;DHT22;54262;44.642;-0.974;2023-06-10T10:40:18;24.70;99.90
67379;DHT22;54262;44.642;-0.974;2023-06-10T10:42:45;24.80;99.90
67379;DHT22;54262;44.642;-0.974;2023-06-10T10:45:11;24.80;99.90
67379;DHT22;54262;44.642;-0.974;2023-06-10T10:47:37;24.80;99.90
67379;DHT22;54262;44.642;-0.974;2023-06-10T10:50:17;24.90;99.90
67379;DHT22;54262;44.642;-0.974;2023-06-10T10:55:26;24.90;99.90
67379;DHT22;54262;44.642;-0.974;2023-06-10T11:00:35;25.00;99.90
67379;DHT22;54262;44.642;-0.974;2023-06-10T11:05:40;25.10;99.90
67379;DHT22;54262;44.642;-0.974;2023-06-10T11:08:08;25.20;99.90
67379;DHT22;54262;44.642;-0.974;2023-06-10T11:10:38;25.20;99.90
67379;DHT22;54262;44.642;-0.974;2023-06-10T11:13:14;25.30;99.90
67379;DHT22;54262;44.642;-0.974;2023-06-10T11:15:48;25.30;99.90
67379;DHT22;54262;44.642;-0.974;2023-06-10T11:18:27;25.40;99.90
67379;DHT22;54262;44.642;-0.974;2023-06-10T11:28:35;25.60;99.90
67379;DHT22;54262;44.642;-0.974;2023-06-10T11:31:00;25.60;99.90
67379;DHT22;54262;44.642;-0.974;2023-06-10T11:33:26;25.60;99.90
67379;DHT22;54262;44.642;-0.974;2023-06-10T11:35:56;25.70;99.90
67379;DHT22;54262;44.642;-0.974;2023-06-10T11:38:25;25.80;99.90
67379;DHT22;54262;44.642;-0.974;2023-06-10T11:40:52;25.80;99.90
67379;DHT22;54262;44.642;-0.974;2023-06-10T11:43:19;25.90;99.90
67379;DHT22;54262;44.642;-0.974;2023-06-10T11:45:45;25.90;99.90
67379;DHT22;54262;44.642;-0.974;2023-06-10T11:48:11;26.00;99.90
67379;DHT22;54262;44.642;-0.974;2023-06-10T11:50:37;26.10;99.90
67379;DHT22;54262;44.642;-0.974;2023-06-10T11:53:03;26.10;99.90
67379;DHT22;54262;44.642;-0.974;2023-06-10T11:55:48;26.10;99.90
67379;DHT22;54262;44.642;-0.974;2023-06-10T11:58:17;26.20;99.90
67379;DHT22;54262;44.642;-0.974;2023-06-10T12:00:53;26.20;99.90
67379;DHT22;54262;44.642;-0.974;2023-06-10T12:03:20;26.30;99.90
67379;DHT22;54262;44.642;-0.974;2023-06-10T12:06:04;26.40;99.90
67379;DHT22;54262;44.642;-0.974;2023-06-10T12:08:30;26.40;99.90
67379;DHT22;54262;44.642;-0.974;2023-06-10T12:10:56;26.50;99.90
67379;DHT22;54262;44.642;-0.974;2023-06-10T12:13:23;26.50;99.90
67379;DHT22;54262;44.642;-0.974;2023-06-10T12:15:52;26.60;99.90
67379;DHT22;54262;44.642;-0.974;2023-06-10T12:18:18;26.60;99.90
67379;DHT22;54262;44.642;-0.974;2023-06-10T12:20:44;26.60;99.90
67379;DHT22;54262;44.642;-0.974;2023-06-10T12:23:11;26.70;99.90
67379;DHT22;54262;44.642;-0.974;2023-06-10T12:25:37;26.70;99.90
67379;DHT22;54262;44.642;-0.974;2023-06-10T12:28:04;26.70;99.90
67379;DHT22;54262;44.642;-0.974;2023-06-10T12:30:30;26.70;99.90
67379;DHT22;54262;44.642;-0.974;2023-06-10T12:32:57;26.80;99.90
67379;DHT22;54262;44.642;-0.974;2023-06-10T12:35:28;26.80;99.90
67379;DHT22;54262;44.642;-0.974;2023-06-10T12:38:05;26.90;99.90
67379;DHT22;54262;44.642;-0.974;2023-06-10T12:40:37;26.90;99.90
67379;DHT22;54262;44.642;-0.974;2023-06-10T12:43:05;26.90;99.90
67379;DHT22;54262;44.642;-0.974;2023-06-10T12:45:36;27.00;99.90
67379;DHT22;54262;44.642;-0.974;2023-06-10T12:48:10;27.00;99.90
67379;DHT22;54262;44.642;-0.974;2023-06-10T12:50:38;27.00;99.90
67379;DHT22;54262;44.642;-0.974;2023-06-10T12:53:04;27.10;99.90
67379;DHT22;54262;44.642;-0.974;2023-06-10T12:55:31;27.10;99.90
67379;DHT22;54262;44.642;-0.974;2023-06-10T12:57:58;27.20;99.90
67379;DHT22;54262;44.642;-0.974;2023-06-10T13:00:24;27.20;99.90
67379;DHT22;54262;44.642;-0.974;2023-06-10T13:02:52;27.30;99.90
67379;DHT22;54262;44.642;-0.974;2023-06-10T13:05:19;27.30;99.90
67379;DHT22;54262;44.642;-0.974;2023-06-10T13:07:46;27.40;99.90
67379;DHT22;54262;44.642;-0.974;2023-06-10T13:10:13;27.40;99.90
67379;DHT22;54262;44.642;-0.974;2023-06-10T13:12:39;27.50;99.90
67379;DHT22;54262;44.642;-0.974;2023-06-10T13:15:05;27.50;99.90
67379;DHT22;54262;44.642;-0.974;2023-06-10T13:17:31;27.60;99.90
67379;DHT22;54262;44.642;-0.974;2023-06-10T13:19:57;27.60;99.90
67379;DHT22;54262;44.642;-0.974;2023-06-10T13:22:22;27.60;99.90
67379;DHT22;54262;44.642;-0.974;2023-06-10T13:24:49;27.70;99.90
67379;DHT22;54262;44.642;-0.974;2023-06-10T13:27:15;27.70;99.90
67379;DHT22;54262;44.642;-0.974;2023-06-10T13:29:40;27.80;99.90
67379;DHT22;54262;44.642;-0.974;2023-06-10T13:32:07;27.80;99.90
67379;DHT22;54262;44.642;-0.974;2023-06-10T13:34:33;27.90;99.90
67379;DHT22;54262;44.642;-0.974;2023-06-10T13:36:58;27.90;99.90
67379;DHT22;54262;44.642;-0.974;2023-06-10T13:39:27;27.90;99.90
67379;DHT22;54262;44.642;-0.974;2023-06-10T13:41:54;28.00;99.90
67379;DHT22;54262;44.642;-0.974;2023-06-10T13:44:20;28.00;99.90
67379;DHT22;54262;44.642;-0.974;2023-06-10T13:46:46;28.00;99.90
67379;DHT22;54262;44.642;-0.974;2023-06-10T13:49:12;28.10;99.90
67379;DHT22;54262;44.642;-0.974;2023-06-10T13:51:37;28.10;99.90
67379;DHT22;54262;44.642;-0.974;2023-06-10T13:54:03;28.20;99.90
67379;DHT22;54262;44.642;-0.974;2023-06-10T13:56:29;28.20;99.90
67379;DHT22;54262;44.642;-0.974;2023-06-10T13:58:54;28.20;99.90
67379;DHT22;54262;44.642;-0.974;2023-06-10T14:01:20;28.30;99.90
67379;DHT22;54262;44.642;-0.974;2023-06-10T14:03:46;28.30;99.90
67379;DHT22;54262;44.642;-0.974;2023-06-10T14:06:12;28.40;99.90
67379;DHT22;54262;44.642;-0.974;2023-06-10T14:08:40;28.40;99.90
67379;DHT22;54262;44.642;-0.974;2023-06-10T14:11:06;28.40;99.90
67379;DHT22;54262;44.642;-0.974;2023-06-10T14:13:32;28.50;99.90
67379;DHT22;54262;44.642;-0.974;2023-06-10T14:15:59;28.50;99.90
67379;DHT22;54262;44.642;-0.974;2023-06-10T14:18:28;28.50;99.90
67379;DHT22;54262;44.642;-0.974;2023-06-10T14:20:53;28.50;99.90
67379;DHT22;54262;44.642;-0.974;2023-06-10T14:23:19;28.60;99.90
67379;DHT22;54262;44.642;-0.974;2023-06-10T14:25:45;28.60;99.90
67379;DHT22;54262;44.642;-0.974;2023-06-10T14:28:11;28.60;99.90
67379;DHT22;54262;44.642;-0.974;2023-06-10T14:30:36;28.60;99.90
67379;DHT22;54262;44.642;-0.974;2023-06-10T14:33:02;28.70;99.90
67379;DHT22;54262;44.642;-0.974;2023-06-10T14:35:28;28.70;99.90
67379;DHT22;54262;44.642;-0.974;2023-06-10T14:37:53;28.70;99.90
67379;DHT22;54262;44.642;-0.974;2023-06-10T14:40:21;28.80;99.90
67379;DHT22;54262;44.642;-0.974;2023-06-10T14:42:49;28.80;99.90
67379;DHT22;54262;44.642;-0.974;2023-06-10T14:45:15;28.80;99.90
67379;DHT22;54262;44.642;-0.974;2023-06-10T14:47:40;28.80;99.90
67379;DHT22;54262;44.642;-0.974;2023-06-10T14:50:06;28.80;99.90
67379;DHT22;54262;44.642;-0.974;2023-06-10T14:52:32;28.90;99.90
67379;DHT22;54262;44.642;-0.974;2023-06-10T14:54:58;28.90;99.90
67379;DHT22;54262;44.642;-0.974;2023-06-10T14:57:24;28.90;99.90
67379;DHT22;54262;44.642;-0.974;2023-06-10T14:59:49;28.90;99.90
67379;DHT22;54262;44.642;-0.974;2023-06-10T15:02:15;29.00;99.90
67379;DHT22;54262;44.642;-0.974;2023-06-10T15:04:41;29.00;99.90
67379;DHT22;54262;44.642;-0.974;2023-06-10T15:07:06;29.00;99.90
67379;DHT22;54262;44.642;-0.974;2023-06-10T15:09:32;29.00;99.90
67379;DHT22;54262;44.642;-0.974;2023-06-10T15:11:58;29.10;99.90
67379;DHT22;54262;44.642;-0.974;2023-06-10T15:14:25;29.10;99.90
67379;DHT22;54262;44.642;-0.974;2023-06-10T15:16:51;29.10;99.90
67379;DHT22;54262;44.642;-0.974;2023-06-10T15:19:17;29.20;99.90
67379;DHT22;54262;44.642;-0.974;2023-06-10T15:21:42;29.20;99.90
67379;DHT22;54262;44.642;-0.974;2023-06-10T15:24:08;29.20;99.90
67379;DHT22;54262;44.642;-0.974;2023-06-10T15:26:34;29.20;99.90
67379;DHT22;54262;44.642;-0.974;2023-06-10T15:29:00;29.30;99.90
67379;DHT22;54262;44.642;-0.974;2023-06-10T15:31:30;29.30;99.90
67379;DHT22;54262;44.642;-0.974;2023-06-10T15:33:57;29.30;99.90
67379;DHT22;54262;44.642;-0.974;2023-06-10T15:36:24;29.30;99.90
67379;DHT22;54262;44.642;-0.974;2023-06-10T15:38:49;29.30;99.90